createdAt,value
2018-07-31T08:03:57.696Z,93984.78
2018-07-31T08:06:25.391Z,93985.02
2018-07-31T08:08:53.054Z,93985.72
2018-07-31T08:11:20.774Z,93996.61
2018-07-31T08:13:48.474Z,93987.63
2018-07-31T08:16:16.196Z,93991.42
2018-07-31T08:18:43.954Z,93995.48
2018-07-31T08:21:11.711Z,93992.70
2018-07-31T08:23:39.415Z,93996.77
2018-07-31T08:26:07.217Z,93998.92
2018-07-31T08:28:34.954Z,93999.63
2018-07-31T08:31:02.743Z,93999.77
2018-07-31T08:33:30.587Z,94000.33
2018-07-31T08:35:58.283Z,93996.53
2018-07-31T08:38:25.944Z,93995.37
2018-07-31T08:40:53.729Z,93997.20
2018-07-31T08:43:21.998Z,93994.53
2018-07-31T08:45:49.732Z,94004.88
2018-07-31T08:48:17.485Z,94006.52
2018-07-31T08:50:45.216Z,93998.17
2018-07-31T08:53:12.947Z,94003.41
2018-07-31T08:55:40.690Z,94001.92
2018-07-31T08:58:08.416Z,93996.77
2018-07-31T09:00:36.121Z,94003.28
2018-07-31T09:03:04.810Z,94003.53
2018-07-31T09:05:32.511Z,93994.95
2018-07-31T09:08:00.198Z,94005.22
2018-07-31T09:10:27.895Z,94000.57
2018-07-31T09:12:55.560Z,93997.42
2018-07-31T09:15:23.299Z,94000.97
2018-07-31T09:17:50.958Z,94003.74
2018-07-31T09:20:19.342Z,94002.34
2018-07-31T09:22:47.826Z,94003.11
2018-07-31T09:25:15.534Z,94002.74
2018-07-31T09:27:43.250Z,93999.38
2018-07-31T09:30:10.955Z,94001.52
2018-07-31T09:32:44.242Z,94005.61
2018-07-31T09:35:11.983Z,94004.75
2018-07-31T09:37:39.735Z,94000.19
2018-07-31T09:40:07.433Z,93996.20
2018-07-31T09:42:35.195Z,94003.84
2018-07-31T09:45:02.967Z,93992.04
2018-07-31T09:47:30.704Z,93996.61
2018-07-31T09:49:58.418Z,93996.16
2018-07-31T09:52:26.171Z,93994.42
2018-07-31T09:54:53.898Z,93994.61
2018-07-31T09:57:21.577Z,93991.19
2018-07-31T09:59:49.302Z,93991.70
2018-07-31T10:02:16.962Z,93991.75
2018-07-31T10:04:44.727Z,93988.50
2018-07-31T10:07:12.446Z,93989.23
2018-07-31T10:09:40.309Z,93986.63
2018-07-31T10:12:08.029Z,93990.05
2018-07-31T10:14:35.775Z,93985.70
2018-07-31T10:17:03.505Z,93987.59
2018-07-31T10:19:31.218Z,93986.27
2018-07-31T10:21:58.917Z,93985.31
2018-07-31T10:24:26.632Z,93987.74
2018-07-31T10:26:54.315Z,93988.66
2018-07-31T10:29:22.064Z,93986.50
2018-07-31T10:31:49.763Z,93992.31
2018-07-31T10:34:17.470Z,93988.16
2018-07-31T10:36:45.151Z,93982.56
2018-07-31T10:39:12.887Z,93991.93
2018-07-31T10:41:40.602Z,93985.44
2018-07-31T10:44:08.296Z,93985.07
2018-07-31T10:46:35.999Z,93986.36
2018-07-31T10:49:03.764Z,93986.31
2018-07-31T10:51:31.456Z,93986.92
2018-07-31T10:53:59.114Z,93987.70
2018-07-31T10:56:26.837Z,93984.86
2018-07-31T10:58:54.522Z,93986.25
2018-07-31T11:01:22.219Z,93979.56
2018-07-31T11:03:49.974Z,93983.56
2018-07-31T11:06:17.721Z,93983.12
2018-07-31T11:08:45.438Z,93976.89
2018-07-31T11:11:13.135Z,93971.91
2018-07-31T11:13:40.862Z,93972.19
2018-07-31T11:16:08.562Z,93969.30
2018-07-31T11:18:36.262Z,93974.23
2018-07-31T11:21:04.032Z,93978.84
2018-07-31T11:23:31.671Z,93967.37
2018-07-31T11:25:59.406Z,93966.14
2018-07-31T11:28:27.073Z,93962.58
2018-07-31T11:30:54.804Z,93965.23
2018-07-31T11:33:22.516Z,93960.56
2018-07-31T11:35:50.234Z,93965.48
2018-07-31T11:38:17.942Z,93964.91
2018-07-31T11:40:45.666Z,93960.67
2018-07-31T11:43:13.398Z,93960.44
2018-07-31T11:45:41.195Z,93958.88
2018-07-31T11:48:08.867Z,93957.39
2018-07-31T11:50:36.588Z,93954.16
2018-07-31T11:53:04.358Z,93955.77
2018-07-31T11:55:32.082Z,93952.53
2018-07-31T11:57:59.802Z,93951.93
2018-07-31T12:00:28.522Z,93950.73
2018-07-31T12:02:56.266Z,93947.09
2018-07-31T12:05:24.010Z,93951.61
2018-07-31T12:07:51.760Z,93942.22
2018-07-31T12:10:19.479Z,93942.89
2018-07-31T12:12:47.171Z,93940.33
2018-07-31T12:15:14.858Z,93938.59
2018-07-31T12:17:42.563Z,93937.08
2018-07-31T12:20:10.267Z,93941.26
2018-07-31T12:22:38.082Z,93935.63
2018-07-31T12:25:05.793Z,93935.91
2018-07-31T12:27:33.491Z,93941.63
2018-07-31T12:30:01.204Z,93935.53
2018-07-31T12:32:29.062Z,93931.33
2018-07-31T12:34:56.839Z,93938.49
2018-07-31T12:37:24.558Z,93939.55
2018-07-31T12:39:52.234Z,93936.63
2018-07-31T12:42:20.083Z,93933.77
2018-07-31T12:44:47.783Z,93929.37
2018-07-31T12:47:15.439Z,93931.52
2018-07-31T12:49:43.222Z,93934.67
2018-07-31T12:52:10.871Z,93938.06
2018-07-31T12:54:38.595Z,93942.92
2018-07-31T12:57:06.269Z,93941.48
2018-07-31T12:59:33.960Z,93941.12
2018-07-31T13:02:01.786Z,93933.87
2018-07-31T13:04:29.533Z,93930.38
2018-07-31T13:06:57.224Z,93927.78
2018-07-31T13:09:24.898Z,93929.42
2018-07-31T13:11:52.628Z,93930.30
2018-07-31T13:14:20.306Z,93928.05
2018-07-31T13:16:47.993Z,93928.87
2018-07-31T13:19:15.707Z,93928.63
2018-07-31T13:21:43.440Z,93928.39
2018-07-31T13:24:11.168Z,93933.67
2018-07-31T13:26:38.843Z,93934.45
2018-07-31T13:29:06.575Z,93934.16
2018-07-31T13:31:34.275Z,93941.76
2018-07-31T13:34:01.990Z,93938.82
2018-07-31T13:36:29.672Z,93935.15
2018-07-31T13:38:57.424Z,93935.80
2018-07-31T13:41:25.123Z,93939.42
2018-07-31T13:43:52.958Z,93935.38
2018-07-31T13:46:20.685Z,93932.00
2018-07-31T13:48:48.412Z,93926.53
2018-07-31T13:51:16.186Z,93929.06
2018-07-31T13:53:43.952Z,93932.70
2018-07-31T13:56:11.750Z,93932.93
2018-07-31T13:58:39.442Z,93928.75
2018-07-31T14:01:07.168Z,93930.45
2018-07-31T14:03:34.895Z,93926.86
2018-07-31T14:06:02.642Z,93933.06
2018-07-31T14:08:30.362Z,93937.05
2018-07-31T14:10:58.065Z,93943.80
2018-07-31T14:13:25.796Z,93938.02
2018-07-31T14:15:53.522Z,93943.11
2018-07-31T14:18:21.288Z,93945.16
2018-07-31T14:20:49.016Z,93942.22
2018-07-31T14:23:16.715Z,93935.38
2018-07-31T14:25:44.458Z,93945.84
2018-07-31T14:28:12.185Z,93942.66
2018-07-31T14:30:39.919Z,93940.16
2018-07-31T14:33:07.614Z,93949.00
2018-07-31T14:35:35.330Z,93949.92
2018-07-31T14:38:03.082Z,93952.02
2018-07-31T14:40:30.790Z,93954.45
2018-07-31T14:42:58.560Z,93955.55
2018-07-31T14:45:26.266Z,93954.25
2018-07-31T14:47:53.967Z,93947.44
2018-07-31T14:50:21.730Z,93957.30
2018-07-31T14:52:49.727Z,93956.51
2018-07-31T14:55:17.437Z,93953.78
2018-07-31T14:57:45.135Z,93953.32
2018-07-31T15:00:12.849Z,93947.86
2018-07-31T15:02:40.525Z,93949.69
2018-07-31T15:05:08.259Z,93949.69
2018-07-31T15:07:36.035Z,93950.16
2018-07-31T15:10:04.047Z,93952.66
2018-07-31T15:12:31.762Z,93952.30
2018-07-31T15:14:59.480Z,93953.22
2018-07-31T15:17:27.151Z,93951.06
2018-07-31T15:19:54.865Z,93947.55
2018-07-31T15:22:22.532Z,93954.92
2018-07-31T15:24:50.289Z,93950.16
2018-07-31T15:27:17.995Z,93950.03
2018-07-31T15:29:45.741Z,93951.39
2018-07-31T15:32:13.395Z,93953.09
2018-07-31T15:34:41.183Z,93951.73
2018-07-31T15:37:08.879Z,93950.39
2018-07-31T15:39:36.563Z,93952.43
2018-07-31T15:42:05.290Z,93957.67
2018-07-31T15:44:32.997Z,93955.05
2018-07-31T15:47:00.714Z,93946.74
2018-07-31T15:49:28.484Z,93958.80
2018-07-31T15:51:56.201Z,93955.59
2018-07-31T15:54:24.911Z,93961.83
2018-07-31T15:56:52.615Z,93962.85
2018-07-31T15:59:20.293Z,93964.90
2018-07-31T16:01:47.991Z,93962.63
2018-07-31T16:04:15.782Z,93961.44
2018-07-31T16:06:43.502Z,93962.31
2018-07-31T16:09:11.860Z,93956.62
2018-07-31T16:11:39.606Z,93964.75
2018-07-31T16:14:07.739Z,93962.69
2018-07-31T16:16:35.614Z,93963.11
2018-07-31T16:19:03.271Z,93955.56
2018-07-31T16:21:31.076Z,93959.21
2018-07-31T16:23:58.819Z,93958.69
2018-07-31T16:26:26.497Z,93953.72
2018-07-31T16:28:54.171Z,93955.63
2018-07-31T16:31:21.910Z,93950.94
2018-07-31T16:33:49.844Z,93953.97
2018-07-31T16:36:17.602Z,93952.77
2018-07-31T16:38:45.307Z,93957.25
2018-07-31T16:41:13.051Z,93958.05
2018-07-31T16:43:40.776Z,93967.77
2018-07-31T16:46:08.581Z,93969.88
2018-07-31T16:48:36.270Z,93972.80
2018-07-31T16:51:04.048Z,93980.77
2018-07-31T16:53:31.722Z,93980.53
2018-07-31T16:55:59.410Z,93987.16
2018-07-31T16:58:27.160Z,93985.73
2018-07-31T17:00:54.927Z,93985.53
2018-07-31T17:03:22.664Z,93980.80
2018-07-31T17:05:50.390Z,93985.27
2018-07-31T17:08:18.075Z,93990.69
2018-07-31T17:10:45.791Z,93989.38
2018-07-31T17:13:13.487Z,93992.52
2018-07-31T17:15:41.214Z,93995.85
2018-07-31T17:18:08.941Z,94002.75
2018-07-31T17:20:36.721Z,94000.34
2018-07-31T17:23:04.418Z,93998.02
2018-07-31T17:25:32.113Z,94002.08
2018-07-31T17:27:59.794Z,94004.17
2018-07-31T17:30:27.472Z,94001.30
2018-07-31T17:32:55.183Z,94003.53
2018-07-31T17:35:22.960Z,94004.56
2018-07-31T17:37:51.221Z,94006.06
2018-07-31T17:40:18.895Z,94009.42
2018-07-31T17:42:46.680Z,94015.39
2018-07-31T17:45:14.372Z,94013.80
2018-07-31T17:47:42.114Z,94026.70
2018-07-31T17:50:10.021Z,94029.17
2018-07-31T17:52:37.728Z,94027.59
2018-07-31T17:55:05.454Z,94033.41
2018-07-31T17:57:33.284Z,94033.27
2018-07-31T18:00:00.993Z,94034.42
2018-07-31T18:02:28.783Z,94037.68
2018-07-31T18:04:56.518Z,94041.30
2018-07-31T18:07:24.276Z,94043.18
2018-07-31T18:09:51.963Z,94044.08
2018-07-31T18:12:19.688Z,94042.83
2018-07-31T18:14:47.428Z,94052.08
2018-07-31T18:17:15.124Z,94059.63
2018-07-31T18:19:42.798Z,94066.62
2018-07-31T18:22:10.531Z,94065.52
2018-07-31T18:24:38.246Z,94066.28
2018-07-31T18:27:06.001Z,94068.33
2018-07-31T18:29:33.710Z,94064.53
2018-07-31T18:32:01.414Z,94068.70
2018-07-31T18:34:29.207Z,94078.13
2018-07-31T18:36:56.979Z,94078.99
2018-07-31T18:39:24.703Z,94083.11
2018-07-31T18:41:52.418Z,94082.69
2018-07-31T18:44:20.115Z,94089.50
2018-07-31T18:46:47.828Z,94096.20
2018-07-31T18:49:15.606Z,94100.29
2018-07-31T18:51:43.355Z,94099.90
2018-07-31T18:54:11.083Z,94097.76
2018-07-31T18:56:38.854Z,94098.53
2018-07-31T18:59:06.585Z,94100.43
2018-07-31T19:01:34.371Z,94100.20
2018-07-31T19:04:02.116Z,94099.88
2018-07-31T19:06:30.398Z,94099.88
2018-07-31T19:08:58.106Z,94107.37
2018-07-31T19:11:25.809Z,94112.64
2018-07-31T19:13:53.617Z,94105.77
2018-07-31T19:16:21.387Z,94107.18
2018-07-31T19:18:49.194Z,94114.36
2018-07-31T19:21:16.954Z,94113.34
2018-07-31T19:23:44.752Z,94114.63
2018-07-31T19:26:12.470Z,94119.23
2018-07-31T19:28:40.232Z,94111.23
2018-07-31T19:43:02.931Z,94122.95
2018-07-31T19:45:30.696Z,94124.28
2018-07-31T19:47:58.432Z,94121.94
2018-07-31T20:09:47.231Z,94116.19
2018-07-31T20:12:15.055Z,94115.16
2018-07-31T20:14:42.770Z,94118.41
2018-07-31T20:17:10.457Z,94122.25
2018-07-31T20:19:38.233Z,94121.04
2018-07-31T20:22:05.954Z,94123.23
2018-07-31T20:24:33.691Z,94117.85
2018-07-31T20:27:01.387Z,94126.48
2018-07-31T20:29:29.223Z,94132.45
2018-07-31T20:31:56.965Z,94124.91
2018-07-31T20:34:24.682Z,94126.28
2018-07-31T20:36:52.365Z,94130.58
2018-07-31T20:39:20.176Z,94121.16
2018-07-31T20:41:48.031Z,94122.83
2018-07-31T20:44:15.729Z,94125.30
2018-07-31T20:46:43.474Z,94122.36
2018-07-31T20:49:11.199Z,94115.33
2018-07-31T20:51:38.999Z,94121.38
2018-07-31T20:54:06.671Z,94117.49
2018-07-31T20:56:34.435Z,94119.15
2018-07-31T20:59:02.206Z,94114.27
2018-07-31T21:01:29.949Z,94114.00
2018-07-31T21:03:57.607Z,94111.90
2018-07-31T21:06:25.375Z,94114.48
2018-07-31T21:08:53.155Z,94116.61
2018-07-31T21:11:20.878Z,94113.92
2018-07-31T21:13:48.579Z,94123.72
2018-07-31T21:16:16.394Z,94114.09
2018-07-31T21:18:44.090Z,94111.01
2018-07-31T21:21:11.831Z,94115.40
2018-07-31T21:23:39.547Z,94115.93
2018-07-31T21:26:07.250Z,94116.23
2018-07-31T21:28:34.940Z,94110.92
2018-07-31T21:31:02.695Z,94117.08
2018-07-31T21:33:30.386Z,94113.85
2018-07-31T21:35:58.087Z,94111.73
2018-07-31T21:38:25.847Z,94111.73
2018-07-31T21:40:53.570Z,94112.31
2018-07-31T21:43:21.246Z,94119.58
2018-07-31T21:45:48.970Z,94117.96
2018-07-31T21:48:16.691Z,94119.84
2018-07-31T21:50:44.558Z,94124.41
2018-07-31T21:53:12.272Z,94117.97
2018-07-31T21:55:39.958Z,94118.26
2018-07-31T21:58:08.659Z,94126.80
2018-07-31T22:00:42.129Z,94130.06
2018-07-31T22:03:09.888Z,94130.55
2018-07-31T22:05:37.604Z,94131.38
2018-07-31T22:08:05.291Z,94127.36
2018-07-31T22:10:33.048Z,94133.88
2018-07-31T22:13:00.768Z,94127.92
2018-07-31T22:15:28.502Z,94133.25
2018-07-31T22:17:56.186Z,94129.23
2018-07-31T22:20:23.892Z,94131.70
2018-07-31T22:22:51.686Z,94126.88
2018-07-31T22:25:19.403Z,94123.13
2018-07-31T22:27:47.174Z,94127.98
2018-07-31T22:30:14.862Z,94131.72
2018-07-31T22:32:42.534Z,94131.17
2018-07-31T22:35:10.230Z,94137.33
2018-07-31T22:37:37.874Z,94141.09
2018-07-31T22:40:05.677Z,94141.36
2018-07-31T22:42:33.614Z,94137.34
2018-07-31T22:45:01.294Z,94138.13
2018-07-31T22:47:29.011Z,94139.20
2018-07-31T22:49:56.739Z,94137.06
2018-07-31T22:52:24.484Z,94138.91
2018-07-31T22:54:52.131Z,94137.84
2018-07-31T22:57:20.242Z,94135.13
2018-07-31T22:59:47.894Z,94135.44
2018-07-31T23:02:15.595Z,94137.61
2018-07-31T23:04:43.289Z,94139.19
2018-07-31T23:07:11.101Z,94132.17
2018-07-31T23:09:39.123Z,94140.20
2018-07-31T23:12:06.824Z,94134.58
2018-07-31T23:14:34.479Z,94134.34
2018-07-31T23:17:02.413Z,94128.75
2018-07-31T23:19:30.071Z,94133.31
2018-07-31T23:21:57.809Z,94133.83
2018-07-31T23:24:25.505Z,94131.42
2018-07-31T23:26:53.162Z,94135.45
2018-07-31T23:29:20.838Z,94131.98
2018-07-31T23:31:48.552Z,94134.38
2018-07-31T23:34:16.231Z,94135.98
2018-07-31T23:36:44.019Z,94126.08
2018-07-31T23:39:11.886Z,94130.09
2018-07-31T23:41:39.590Z,94127.96
2018-07-31T23:44:08.039Z,94125.54
2018-07-31T23:46:36.045Z,94134.93
2018-07-31T23:49:03.745Z,94127.41
2018-07-31T23:51:31.414Z,94137.06
2018-07-31T23:53:59.203Z,94135.72
2018-07-31T23:56:26.964Z,94131.42
2018-07-31T23:58:54.638Z,94128.47
